sensor_id;sensor_type;location;lat;lon;timestamp;pressure;altitude;pressure_sealevel;temperature;humidity
50065;BME280;64524;47.848;-122.338;2022-12-10T00:01:49;100086.46;;;6.26;100.00
50065;BME280;64524;47.848;-122.338;2022-12-10T00:04:18;100069.85;;;6.21;100.00
50065;BME280;64524;47.848;-122.338;2022-12-10T00:06:47;100059.50;;;6.19;100.00
50065;BME280;64524;47.848;-122.338;2022-12-10T00:09:17;100056.35;;;6.17;100.00
50065;BME280;64524;47.848;-122.338;2022-12-10T00:11:47;100046.02;;;6.15;100.00
50065;BME280;64524;47.848;-122.338;2022-12-10T00:14:16;100034.48;;;6.16;100.00
50065;BME280;64524;47.848;-122.338;2022-12-10T00:16:45;100023.47;;;6.15;100.00
50065;BME280;64524;47.848;-122.338;2022-12-10T00:19:13;100015.00;;;6.13;100.00
50065;BME280;64524;47.848;-122.338;2022-12-10T00:21:43;100010.32;;;6.10;100.00
50065;BME280;64524;47.848;-122.338;2022-12-10T00:24:12;100005.27;;;6.07;100.00
50065;BME280;64524;47.848;-122.338;2022-12-10T00:26:41;100001.77;;;6.04;100.00
50065;BME280;64524;47.848;-122.338;2022-12-10T00:29:11;99996.08;;;6.03;100.00
50065;BME280;64524;47.848;-122.338;2022-12-10T00:31:40;99989.36;;;6.02;100.00
50065;BME280;64524;47.848;-122.338;2022-12-10T00:34:10;99979.36;;;6.01;100.00
50065;BME280;64524;47.848;-122.338;2022-12-10T00:36:43;99977.27;;;6.00;100.00
50065;BME280;64524;47.848;-122.338;2022-12-10T00:39:17;99968.33;;;5.99;100.00
50065;BME280;64524;47.848;-122.338;2022-12-10T00:41:46;99960.76;;;5.99;100.00
50065;BME280;64524;47.848;-122.338;2022-12-10T00:44:16;99954.70;;;5.97;100.00
50065;BME280;64524;47.848;-122.338;2022-12-10T00:46:44;99945.38;;;5.95;100.00
50065;BME280;64524;47.848;-122.338;2022-12-10T00:49:13;99931.08;;;5.94;100.00
50065;BME280;64524;47.848;-122.338;2022-12-10T00:51:42;99919.55;;;5.93;100.00
50065;BME280;64524;47.848;-122.338;2022-12-10T00:54:10;99913.35;;;5.93;100.00
50065;BME280;64524;47.848;-122.338;2022-12-10T00:56:39;99905.40;;;5.91;100.00
50065;BME280;64524;47.848;-122.338;2022-12-10T00:59:07;99899.52;;;5.89;100.00
50065;BME280;64524;47.848;-122.338;2022-12-10T01:01:41;99900.52;;;5.87;100.00
50065;BME280;64524;47.848;-122.338;2022-12-10T01:04:17;99902.91;;;5.86;100.00
50065;BME280;64524;47.848;-122.338;2022-12-10T01:06:51;99906.48;;;5.85;100.00
50065;BME280;64524;47.848;-122.338;2022-12-10T01:09:26;99905.07;;;5.82;100.00
50065;BME280;64524;47.848;-122.338;2022-12-10T01:11:57;99901.23;;;5.80;100.00
50065;BME280;64524;47.848;-122.338;2022-12-10T01:14:33;99896.24;;;5.80;100.00
50065;BME280;64524;47.848;-122.338;2022-12-10T01:17:04;99896.07;;;5.80;100.00
50065;BME280;64524;47.848;-122.338;2022-12-10T01:19:33;99894.66;;;5.76;100.00
50065;BME280;64524;47.848;-122.338;2022-12-10T01:22:03;99891.04;;;5.76;100.00
50065;BME280;64524;47.848;-122.338;2022-12-10T01:24:31;99884.33;;;5.75;100.00
50065;BME280;64524;47.848;-122.338;2022-12-10T01:27:00;99881.72;;;5.74;100.00
50065;BME280;64524;47.848;-122.338;2022-12-10T01:29:29;99878.27;;;5.72;100.00
50065;BME280;64524;47.848;-122.338;2022-12-10T01:31:58;99879.77;;;5.71;100.00
50065;BME280;64524;47.848;-122.338;2022-12-10T01:34:26;99874.27;;;5.70;100.00
50065;BME280;64524;47.848;-122.338;2022-12-10T01:36:55;99869.41;;;5.68;100.00
50065;BME280;64524;47.848;-122.338;2022-12-10T01:39:24;99866.27;;;5.65;100.00
50065;BME280;64524;47.848;-122.338;2022-12-10T01:41:56;99855.91;;;5.62;100.00
50065;BME280;64524;47.848;-122.338;2022-12-10T01:46:56;99836.21;;;5.56;100.00
50065;BME280;64524;47.848;-122.338;2022-12-10T01:49:38;99829.66;;;5.55;100.00
50065;BME280;64524;47.848;-122.338;2022-12-10T01:52:09;99824.09;;;5.51;100.00
50065;BME280;64524;47.848;-122.338;2022-12-10T01:54:43;99820.67;;;5.51;100.00
50065;BME280;64524;47.848;-122.338;2022-12-10T01:57:18;99810.38;;;5.53;100.00
50065;BME280;64524;47.848;-122.338;2022-12-10T01:59:54;99800.41;;;5.53;100.00
50065;BME280;64524;47.848;-122.338;2022-12-10T02:02:46;99802.09;;;5.50;100.00
50065;BME280;64524;47.848;-122.338;2022-12-10T02:11:09;99767.69;;;5.37;100.00
50065;BME280;64524;47.848;-122.338;2022-12-10T02:13:50;99755.88;;;5.30;100.00
50065;BME280;64524;47.848;-122.338;2022-12-10T02:16:31;99753.71;;;5.23;100.00
50065;BME280;64524;47.848;-122.338;2022-12-10T02:21:46;99729.04;;;5.17;100.00
50065;BME280;64524;47.848;-122.338;2022-12-10T02:24:21;99722.48;;;5.17;100.00
50065;BME280;64524;47.848;-122.338;2022-12-10T02:27:11;99708.73;;;5.14;100.00
50065;BME280;64524;47.848;-122.338;2022-12-10T02:29:43;99688.08;;;5.12;100.00
50065;BME280;64524;47.848;-122.338;2022-12-10T02:32:18;99679.46;;;5.10;100.00
50065;BME280;64524;47.848;-122.338;2022-12-10T02:34:51;99680.30;;;5.09;100.00
50065;BME280;64524;47.848;-122.338;2022-12-10T02:37:27;99683.16;;;5.06;100.00
50065;BME280;64524;47.848;-122.338;2022-12-10T02:40:02;99686.73;;;5.04;100.00
50065;BME280;64524;47.848;-122.338;2022-12-10T02:42:37;99675.71;;;5.01;100.00
50065;BME280;64524;47.848;-122.338;2022-12-10T02:45:08;99666.23;;;4.99;100.00
50065;BME280;64524;47.848;-122.338;2022-12-10T02:47:39;99671.00;;;4.97;100.00
50065;BME280;64524;47.848;-122.338;2022-12-10T02:50:10;99668.73;;;4.95;100.00
50065;BME280;64524;47.848;-122.338;2022-12-10T02:52:40;99658.46;;;4.97;100.00
50065;BME280;64524;47.848;-122.338;2022-12-10T02:55:12;99655.20;;;4.97;100.00
50065;BME280;64524;47.848;-122.338;2022-12-10T03:00:20;99650.91;;;4.97;100.00
50065;BME280;64524;47.848;-122.338;2022-12-10T03:05:56;99630.55;;;5.00;100.00
50065;BME280;64524;47.848;-122.338;2022-12-10T03:11:22;99625.07;;;5.01;100.00
50065;BME280;64524;47.848;-122.338;2022-12-10T03:16:56;99617.28;;;4.97;100.00
50065;BME280;64524;47.848;-122.338;2022-12-10T03:19:47;99612.48;;;4.98;100.00
50065;BME280;64524;47.848;-122.338;2022-12-10T03:22:18;99609.58;;;4.98;100.00
50065;BME280;64524;47.848;-122.338;2022-12-10T03:24:48;99603.75;;;4.99;100.00
50065;BME280;64524;47.848;-122.338;2022-12-10T03:27:19;99600.02;;;5.01;100.00
50065;BME280;64524;47.848;-122.338;2022-12-10T03:29:51;99597.61;;;5.01;100.00
50065;BME280;64524;47.848;-122.338;2022-12-10T03:32:22;99589.91;;;5.02;100.00
50065;BME280;64524;47.848;-122.338;2022-12-10T03:34:54;99593.17;;;5.03;100.00
50065;BME280;64524;47.848;-122.338;2022-12-10T03:37:24;99588.22;;;5.05;100.00
50065;BME280;64524;47.848;-122.338;2022-12-10T03:39:54;99580.84;;;5.05;100.00
50065;BME280;64524;47.848;-122.338;2022-12-10T03:42:23;99573.47;;;5.06;100.00
50065;BME280;64524;47.848;-122.338;2022-12-10T03:44:51;99569.20;;;5.07;100.00
50065;BME280;64524;47.848;-122.338;2022-12-10T03:47:20;99569.89;;;5.07;100.00
50065;BME280;64524;47.848;-122.338;2022-12-10T03:49:49;99562.66;;;5.07;100.00
50065;BME280;64524;47.848;-122.338;2022-12-10T03:52:18;99562.48;;;5.06;100.00
50065;BME280;64524;47.848;-122.338;2022-12-10T03:54:46;99558.05;;;5.07;100.00
50065;BME280;64524;47.848;-122.338;2022-12-10T03:57:15;99563.20;;;5.06;100.00
50065;BME280;64524;47.848;-122.338;2022-12-10T03:59:43;99564.74;;;5.07;100.00
50065;BME280;64524;47.848;-122.338;2022-12-10T04:02:12;99557.70;;;5.07;100.00
50065;BME280;64524;47.848;-122.338;2022-12-10T04:04:41;99556.17;;;5.08;100.00
50065;BME280;64524;47.848;-122.338;2022-12-10T04:07:10;99549.83;;;5.09;100.00
50065;BME280;64524;47.848;-122.338;2022-12-10T04:09:38;99541.09;;;5.10;100.00
50065;BME280;64524;47.848;-122.338;2022-12-10T04:12:08;99534.73;;;5.10;100.00
50065;BME280;64524;47.848;-122.338;2022-12-10T04:14:37;99534.90;;;5.08;100.00
50065;BME280;64524;47.848;-122.338;2022-12-10T04:17:38;99525.95;;;5.07;100.00
50065;BME280;64524;47.848;-122.338;2022-12-10T04:20:06;99521.13;;;5.06;100.00
50065;BME280;64524;47.848;-122.338;2022-12-10T04:22:55;99513.04;;;5.05;100.00
50065;BME280;64524;47.848;-122.338;2022-12-10T04:25:43;99507.20;;;5.04;100.00
50065;BME280;64524;47.848;-122.338;2022-12-10T04:28:30;99499.14;;;5.05;100.00
50065;BME280;64524;47.848;-122.338;2022-12-10T04:30:58;99495.16;;;5.03;100.00
50065;BME280;64524;47.848;-122.338;2022-12-10T04:33:27;99491.70;;;5.02;100.00
50065;BME280;64524;47.848;-122.338;2022-12-10T04:35:55;99490.84;;;5.01;100.00
50065;BME280;64524;47.848;-122.338;2022-12-10T04:38:24;99483.48;;;5.01;100.00
50065;BME280;64524;47.848;-122.338;2022-12-10T04:40:52;99478.82;;;5.00;100.00
50065;BME280;64524;47.848;-122.338;2022-12-10T04:43:20;99478.46;;;4.98;100.00
50065;BME280;64524;47.848;-122.338;2022-12-10T04:45:49;99470.73;;;4.99;100.00
50065;BME280;64524;47.848;-122.338;2022-12-10T04:48:18;99471.77;;;4.99;100.00
50065;BME280;64524;47.848;-122.338;2022-12-10T04:50:46;99469.52;;;4.98;100.00
50065;BME280;64524;47.848;-122.338;2022-12-10T04:53:15;99472.92;;;4.96;100.00
50065;BME280;64524;47.848;-122.338;2022-12-10T04:55:43;99463.13;;;4.95;100.00
50065;BME280;64524;47.848;-122.338;2022-12-10T04:58:12;99459.32;;;4.92;100.00
50065;BME280;64524;47.848;-122.338;2022-12-10T05:01:05;99458.10;;;4.92;100.00
50065;BME280;64524;47.848;-122.338;2022-12-10T05:03:35;99457.20;;;4.89;100.00
50065;BME280;64524;47.848;-122.338;2022-12-10T05:06:09;99451.67;;;4.87;100.00
50065;BME280;64524;47.848;-122.338;2022-12-10T05:08:39;99447.88;;;4.86;100.00
50065;BME280;64524;47.848;-122.338;2022-12-10T05:11:11;99447.52;;;4.83;100.00
50065;BME280;64524;47.848;-122.338;2022-12-10T05:13:40;99446.98;;;4.82;100.00
50065;BME280;64524;47.848;-122.338;2022-12-10T05:16:11;99443.39;;;4.84;100.00
50065;BME280;64524;47.848;-122.338;2022-12-10T05:18:40;99442.39;;;4.86;100.00
50065;BME280;64524;47.848;-122.338;2022-12-10T05:21:14;99433.52;;;4.88;100.00
50065;BME280;64524;47.848;-122.338;2022-12-10T05:23:46;99428.20;;;4.88;100.00
50065;BME280;64524;47.848;-122.338;2022-12-10T05:26:18;99432.12;;;4.87;100.00
50065;BME280;64524;47.848;-122.338;2022-12-10T05:28:52;99428.66;;;4.86;100.00
50065;BME280;64524;47.848;-122.338;2022-12-10T05:31:26;99421.44;;;4.84;100.00
50065;BME280;64524;47.848;-122.338;2022-12-10T05:33:56;99417.31;;;4.83;100.00
50065;BME280;64524;47.848;-122.338;2022-12-10T05:36:28;99407.50;;;4.81;100.00
50065;BME280;64524;47.848;-122.338;2022-12-10T05:38:58;99408.36;;;4.80;100.00
50065;BME280;64524;47.848;-122.338;2022-12-10T05:41:29;99401.16;;;4.81;100.00
50065;BME280;64524;47.848;-122.338;2022-12-10T05:43:58;99395.65;;;4.81;100.00
50065;BME280;64524;47.848;-122.338;2022-12-10T05:46:29;99391.20;;;4.81;100.00
50065;BME280;64524;47.848;-122.338;2022-12-10T05:49:00;99389.48;;;4.81;100.00
50065;BME280;64524;47.848;-122.338;2022-12-10T05:51:31;99386.92;;;4.81;100.00
50065;BME280;64524;47.848;-122.338;2022-12-10T05:54:00;99382.98;;;4.82;100.00
50065;BME280;64524;47.848;-122.338;2022-12-10T05:56:32;99375.96;;;4.84;100.00
50065;BME280;64524;47.848;-122.338;2022-12-10T05:59:03;99372.89;;;4.84;100.00
50065;BME280;64524;47.848;-122.338;2022-12-10T06:01:35;99356.58;;;4.84;100.00
50065;BME280;64524;47.848;-122.338;2022-12-10T06:04:05;99351.09;;;4.84;100.00
50065;BME280;64524;47.848;-122.338;2022-12-10T06:06:38;99343.54;;;4.83;100.00
50065;BME280;64524;47.848;-122.338;2022-12-10T06:09:11;99330.85;;;4.84;100.00
50065;BME280;64524;47.848;-122.338;2022-12-10T06:11:40;99322.27;;;4.85;100.00
50065;BME280;64524;47.848;-122.338;2022-12-10T06:14:10;99321.25;;;4.87;100.00
50065;BME280;64524;47.848;-122.338;2022-12-10T06:16:39;99321.29;;;4.88;100.00
50065;BME280;64524;47.848;-122.338;2022-12-10T06:19:08;99312.02;;;4.88;100.00
50065;BME280;64524;47.848;-122.338;2022-12-10T06:21:37;99314.77;;;4.89;100.00
50065;BME280;64524;47.848;-122.338;2022-12-10T06:24:07;99309.30;;;4.90;100.00
50065;BME280;64524;47.848;-122.338;2022-12-10T06:26:35;99308.81;;;4.92;100.00
50065;BME280;64524;47.848;-122.338;2022-12-10T06:29:05;99308.34;;;4.95;100.00
50065;BME280;64524;47.848;-122.338;2022-12-10T06:31:33;99309.91;;;4.98;100.00
50065;BME280;64524;47.848;-122.338;2022-12-10T06:34:02;99308.55;;;5.00;100.00
50065;BME280;64524;47.848;-122.338;2022-12-10T06:36:31;99312.51;;;5.00;100.00
50065;BME280;64524;47.848;-122.338;2022-12-10T06:38:59;99306.52;;;5.01;100.00
50065;BME280;64524;47.848;-122.338;2022-12-10T06:41:28;99311.14;;;5.00;100.00
50065;BME280;64524;47.848;-122.338;2022-12-10T06:43:58;99301.17;;;4.99;100.00
50065;BME280;64524;47.848;-122.338;2022-12-10T06:46:27;99298.09;;;4.99;100.00
50065;BME280;64524;47.848;-122.338;2022-12-10T06:48:56;99296.56;;;5.01;100.00
50065;BME280;64524;47.848;-122.338;2022-12-10T06:51:25;99291.95;;;5.04;100.00
50065;BME280;64524;47.848;-122.338;2022-12-10T06:53:53;99290.12;;;5.08;100.00
50065;BME280;64524;47.848;-122.338;2022-12-10T06:56:22;99278.98;;;5.10;100.00
50065;BME280;64524;47.848;-122.338;2022-12-10T06:58:51;99271.61;;;5.10;100.00
50065;BME280;64524;47.848;-122.338;2022-12-10T07:01:24;99276.77;;;5.12;100.00
50065;BME280;64524;47.848;-122.338;2022-12-10T07:03:56;99269.23;;;5.13;100.00
50065;BME280;64524;47.848;-122.338;2022-12-10T07:06:26;99267.70;;;5.14;100.00
50065;BME280;64524;47.848;-122.338;2022-12-10T07:08:56;99262.56;;;5.16;100.00
50065;BME280;64524;47.848;-122.338;2022-12-10T07:11:25;99262.77;;;5.19;100.00
50065;BME280;64524;47.848;-122.338;2022-12-10T07:13:53;99260.90;;;5.21;100.00
50065;BME280;64524;47.848;-122.338;2022-12-10T07:16:24;99256.12;;;5.22;100.00
50065;BME280;64524;47.848;-122.338;2022-12-10T07:18:55;99250.99;;;5.25;100.00
50065;BME280;64524;47.848;-122.338;2022-12-10T07:21:26;99238.98;;;5.26;100.00
50065;BME280;64524;47.848;-122.338;2022-12-10T07:23:56;99241.90;;;5.26;100.00
50065;BME280;64524;47.848;-122.338;2022-12-10T07:26:29;99241.73;;;5.28;100.00
50065;BME280;64524;47.848;-122.338;2022-12-10T07:28:59;99245.70;;;5.28;100.00
50065;BME280;64524;47.848;-122.338;2022-12-10T07:31:28;99251.02;;;5.29;100.00
50065;BME280;64524;47.848;-122.338;2022-12-10T07:33:57;99254.30;;;5.28;100.00
50065;BME280;64524;47.848;-122.338;2022-12-10T07:36:28;99261.13;;;5.25;100.00
50065;BME280;64524;47.848;-122.338;2022-12-10T07:38:57;99264.71;;;5.24;100.00
50065;BME280;64524;47.848;-122.338;2022-12-10T07:41:26;99270.73;;;5.25;100.00
50065;BME280;64524;47.848;-122.338;2022-12-10T07:43:54;99271.59;;;5.25;100.00
50065;BME280;64524;47.848;-122.338;2022-12-10T07:46:28;99275.88;;;5.25;100.00
50065;BME280;64524;47.848;-122.338;2022-12-10T07:49:00;99276.40;;;5.25;100.00
50065;BME280;64524;47.848;-122.338;2022-12-10T07:51:30;99278.82;;;5.26;100.00
50065;BME280;64524;47.848;-122.338;2022-12-10T07:53:58;99276.08;;;5.26;100.00
50065;BME280;64524;47.848;-122.338;2022-12-10T07:56:26;99272.14;;;5.28;100.00
50065;BME280;64524;47.848;-122.338;2022-12-10T07:58:55;99265.27;;;5.29;100.00
50065;BME280;64524;47.848;-122.338;2022-12-10T08:03:41;99261.52;;;5.31;100.00
50065;BME280;64524;47.848;-122.338;2022-12-10T08:06:13;99252.04;;;5.27;100.00
50065;BME280;64524;47.848;-122.338;2022-12-10T08:08:43;99251.18;;;5.27;100.00
50065;BME280;64524;47.848;-122.338;2022-12-10T08:11:13;99241.57;;;5.28;100.00
50065;BME280;64524;47.848;-122.338;2022-12-10T08:13:42;99241.06;;;5.28;100.00
50065;BME280;64524;47.848;-122.338;2022-12-10T08:16:16;99242.77;;;5.29;100.00
50065;BME280;64524;47.848;-122.338;2022-12-10T08:18:45;99237.46;;;5.29;100.00
50065;BME280;64524;47.848;-122.338;2022-12-10T08:21:17;99233.85;;;5.29;100.00
50065;BME280;64524;47.848;-122.338;2022-12-10T08:23:45;99241.08;;;5.29;100.00
50065;BME280;64524;47.848;-122.338;2022-12-10T08:26:23;99241.60;;;5.31;100.00
50065;BME280;64524;47.848;-122.338;2022-12-10T08:28:54;99235.94;;;5.31;100.00
50065;BME280;64524;47.848;-122.338;2022-12-10T08:31:24;99226.16;;;5.32;100.00
50065;BME280;64524;47.848;-122.338;2022-12-10T08:33:53;99220.33;;;5.32;100.00
50065;BME280;64524;47.848;-122.338;2022-12-10T08:36:22;99211.74;;;5.33;100.00
50065;BME280;64524;47.848;-122.338;2022-12-10T08:38:51;99206.95;;;5.35;100.00
50065;BME280;64524;47.848;-122.338;2022-12-10T08:41:21;99199.59;;;5.37;100.00
50065;BME280;64524;47.848;-122.338;2022-12-10T08:43:52;99198.92;;;5.38;100.00
50065;BME280;64524;47.848;-122.338;2022-12-10T08:46:21;99195.33;;;5.41;100.00
50065;BME280;64524;47.848;-122.338;2022-12-10T08:48:50;99182.47;;;5.43;100.00
50065;BME280;64524;47.848;-122.338;2022-12-10T08:51:20;99171.83;;;5.44;100.00
50065;BME280;64524;47.848;-122.338;2022-12-10T08:53:50;99164.61;;;5.45;100.00
50065;BME280;64524;47.848;-122.338;2022-12-10T08:56:18;99161.71;;;5.46;100.00
50065;BME280;64524;47.848;-122.338;2022-12-10T08:58:47;99160.70;;;5.48;100.00
50065;BME280;64524;47.848;-122.338;2022-12-10T09:01:17;99152.46;;;5.49;100.00
50065;BME280;64524;47.848;-122.338;2022-12-10T09:03:46;99147.14;;;5.50;100.00
50065;BME280;64524;47.848;-122.338;2022-12-10T09:06:18;99140.11;;;5.50;100.00
50065;BME280;64524;47.848;-122.338;2022-12-10T09:08:47;99138.91;;;5.51;100.00
50065;BME280;64524;47.848;-122.338;2022-12-10T09:11:24;99152.48;;;5.52;100.00
50065;BME280;64524;47.848;-122.338;2022-12-10T09:13:54;99155.75;;;5.52;100.00
50065;BME280;64524;47.848;-122.338;2022-12-10T09:16:29;99148.02;;;5.53;100.00
50065;BME280;64524;47.848;-122.338;2022-12-10T09:18:58;99143.21;;;5.53;100.00
50065;BME280;64524;47.848;-122.338;2022-12-10T09:21:28;99141.48;;;5.52;100.00
50065;BME280;64524;47.848;-122.338;2022-12-10T09:23:58;99147.33;;;5.52;100.00
50065;BME280;64524;47.848;-122.338;2022-12-10T09:26:27;99149.91;;;5.51;100.00
50065;BME280;64524;47.848;-122.338;2022-12-10T09:28:56;99145.94;;;5.50;100.00
50065;BME280;64524;47.848;-122.338;2022-12-10T09:31:26;99140.27;;;5.49;100.00
50065;BME280;64524;47.848;-122.338;2022-12-10T09:33:55;99139.23;;;5.49;100.00
50065;BME280;64524;47.848;-122.338;2022-12-10T09:36:24;99141.98;;;5.49;100.00
50065;BME280;64524;47.848;-122.338;2022-12-10T09:38:59;99123.27;;;5.50;100.00
50065;BME280;64524;47.848;-122.338;2022-12-10T09:46:53;99118.64;;;5.51;100.00
50065;BME280;64524;47.848;-122.338;2022-12-10T09:52:17;99114.20;;;5.54;100.00
50065;BME280;64524;47.848;-122.338;2022-12-10T09:54:56;99110.44;;;5.55;100.00
50065;BME280;64524;47.848;-122.338;2022-12-10T09:57:33;99104.41;;;5.55;100.00
50065;BME280;64524;47.848;-122.338;2022-12-10T10:00:15;99106.80;;;5.53;100.00
50065;BME280;64524;47.848;-122.338;2022-12-10T10:02:45;99107.98;;;5.52;100.00
50065;BME280;64524;47.848;-122.338;2022-12-10T10:05:26;99103.88;;;5.52;100.00
50065;BME280;64524;47.848;-122.338;2022-12-10T10:08:11;99102.34;;;5.53;100.00
50065;BME280;64524;47.848;-122.338;2022-12-10T10:10:41;99106.98;;;5.54;100.00
50065;BME280;64524;47.848;-122.338;2022-12-10T10:13:15;99104.92;;;5.54;100.00
50065;BME280;64524;47.848;-122.338;2022-12-10T10:15:47;99104.23;;;5.54;100.00
50065;BME280;64524;47.848;-122.338;2022-12-10T10:20:55;99107.86;;;5.55;100.00
50065;BME280;64524;47.848;-122.338;2022-12-10T10:23:24;99101.48;;;5.54;100.00
50065;BME280;64524;47.848;-122.338;2022-12-10T10:25:53;99098.05;;;5.54;100.00
50065;BME280;64524;47.848;-122.338;2022-12-10T10:28:23;99092.73;;;5.54;100.00
50065;BME280;64524;47.848;-122.338;2022-12-10T10:30:52;99094.45;;;5.55;100.00
50065;BME280;64524;47.848;-122.338;2022-12-10T10:33:22;99086.03;;;5.54;100.00
50065;BME280;64524;47.848;-122.338;2022-12-10T10:35:56;99085.67;;;5.53;100.00
50065;BME280;64524;47.848;-122.338;2022-12-10T10:38:28;99085.32;;;5.52;100.00
50065;BME280;64524;47.848;-122.338;2022-12-10T10:41:02;99087.55;;;5.52;100.00
50065;BME280;64524;47.848;-122.338;2022-12-10T10:43:41;99092.54;;;5.52;100.00
50065;BME280;64524;47.848;-122.338;2022-12-10T10:46:21;99092.02;;;5.52;100.00
50065;BME280;64524;47.848;-122.338;2022-12-10T10:48:50;99096.48;;;5.52;100.00
50065;BME280;64524;47.848;-122.338;2022-12-10T10:51:21;99100.41;;;5.49;100.00
50065;BME280;64524;47.848;-122.338;2022-12-10T10:53:55;99104.71;;;5.49;100.00
50065;BME280;64524;47.848;-122.338;2022-12-10T10:56:29;99107.63;;;5.49;100.00
50065;BME280;64524;47.848;-122.338;2022-12-10T10:59:05;99104.88;;;5.49;100.00
50065;BME280;64524;47.848;-122.338;2022-12-10T11:04:17;99101.61;;;5.49;100.00
50065;BME280;64524;47.848;-122.338;2022-12-10T11:06:48;99092.36;;;5.50;100.00
50065;BME280;64524;47.848;-122.338;2022-12-10T11:09:29;99090.81;;;5.50;100.00
50065;BME280;64524;47.848;-122.338;2022-12-10T11:12:05;99095.96;;;5.50;100.00
50065;BME280;64524;47.848;-122.338;2022-12-10T11:14:44;99096.13;;;5.50;100.00
50065;BME280;64524;47.848;-122.338;2022-12-10T11:17:25;99099.05;;;5.50;100.00
50065;BME280;64524;47.848;-122.338;2022-12-10T11:20:00;99095.27;;;5.49;100.00
50065;BME280;64524;47.848;-122.338;2022-12-10T11:22:32;99095.09;;;5.48;100.00
50065;BME280;64524;47.848;-122.338;2022-12-10T11:25:01;99095.95;;;5.49;100.00
50065;BME280;64524;47.848;-122.338;2022-12-10T11:27:59;99097.34;;;5.50;100.00
50065;BME280;64524;47.848;-122.338;2022-12-10T11:30:33;99097.52;;;5.51;100.00
50065;BME280;64524;47.848;-122.338;2022-12-10T11:33:49;99093.23;;;5.52;100.00
50065;BME280;64524;47.848;-122.338;2022-12-10T11:36:46;99092.71;;;5.53;100.00
50065;BME280;64524;47.848;-122.338;2022-12-10T11:39:24;99094.10;;;5.54;100.00
50065;BME280;64524;47.848;-122.338;2022-12-10T11:45:02;99093.27;;;5.59;100.00
50065;BME280;64524;47.848;-122.338;2022-12-10T11:53:58;99087.14;;;5.68;100.00
50065;BME280;64524;47.848;-122.338;2022-12-10T11:56:38;99087.33;;;5.71;100.00
50065;BME280;64524;47.848;-122.338;2022-12-10T12:00:35;99088.54;;;5.72;100.00
50065;BME280;64524;47.848;-122.338;2022-12-10T12:03:06;99091.46;;;5.72;100.00
50065;BME280;64524;47.848;-122.338;2022-12-10T12:06:04;99090.77;;;5.72;100.00
50065;BME280;64524;47.848;-122.338;2022-12-10T12:14:12;99090.23;;;5.71;100.00
50065;BME280;64524;47.848;-122.338;2022-12-10T12:16:48;99095.23;;;5.71;100.00
50065;BME280;64524;47.848;-122.338;2022-12-10T12:19:34;99099.02;;;5.72;100.00
50065;BME280;64524;47.848;-122.338;2022-12-10T12:22:26;99096.26;;;5.73;100.00
50065;BME280;64524;47.848;-122.338;2022-12-10T12:25:46;99106.08;;;5.75;100.00
50065;BME280;64524;47.848;-122.338;2022-12-10T12:28:15;99102.29;;;5.74;100.00
50065;BME280;64524;47.848;-122.338;2022-12-10T12:30:44;99097.49;;;5.76;100.00
50065;BME280;64524;47.848;-122.338;2022-12-10T12:36:34;99100.74;;;5.74;100.00
50065;BME280;64524;47.848;-122.338;2022-12-10T12:53:15;99097.10;;;5.68;100.00
50065;BME280;64524;47.848;-122.338;2022-12-10T12:56:50;99096.08;;;5.68;100.00
50065;BME280;64524;47.848;-122.338;2022-12-10T12:59:10;99101.22;;;5.67;100.00
50065;BME280;64524;47.848;-122.338;2022-12-10T13:01:53;99095.03;;;5.66;100.00
50065;BME280;64524;47.848;-122.338;2022-12-10T13:04:22;99107.39;;;5.65;100.00
50065;BME280;64524;47.848;-122.338;2022-12-10T13:09:52;99106.17;;;5.64;100.00
50065;BME280;64524;47.848;-122.338;2022-12-10T13:12:47;99105.31;;;5.63;100.00
50065;BME280;64524;47.848;-122.338;2022-12-10T13:15:42;99098.44;;;5.64;100.00
50065;BME280;64524;47.848;-122.338;2022-12-10T13:23:54;99094.33;;;5.63;100.00
50065;BME280;64524;47.848;-122.338;2022-12-10T13:26:28;99090.88;;;5.62;100.00
50065;BME280;64524;47.848;-122.338;2022-12-10T13:29:24;99082.10;;;5.59;100.00
50065;BME280;64524;47.848;-122.338;2022-12-10T13:32:02;99076.77;;;5.57;100.00
50065;BME280;64524;47.848;-122.338;2022-12-10T13:34:35;99062.84;;;5.53;100.00
50065;BME280;64524;47.848;-122.338;2022-12-10T13:45:06;99065.36;;;5.44;100.00
50065;BME280;64524;47.848;-122.338;2022-12-10T13:51:09;99065.33;;;5.39;100.00
50065;BME280;64524;47.848;-122.338;2022-12-10T14:02:46;99080.69;;;5.28;100.00
50065;BME280;64524;47.848;-122.338;2022-12-10T14:08:31;99080.87;;;5.27;100.00
50065;BME280;64524;47.848;-122.338;2022-12-10T14:11:04;99073.30;;;5.26;100.00
50065;BME280;64524;47.848;-122.338;2022-12-10T14:13:42;99063.34;;;5.25;100.00
50065;BME280;64524;47.848;-122.338;2022-12-10T14:16:14;99065.05;;;5.25;100.00
50065;BME280;64524;47.848;-122.338;2022-12-10T14:18:47;99066.26;;;5.24;100.00
50065;BME280;64524;47.848;-122.338;2022-12-10T14:21:19;99067.80;;;5.24;100.00
50065;BME280;64524;47.848;-122.338;2022-12-10T14:23:48;99072.60;;;5.23;100.00
50065;BME280;64524;47.848;-122.338;2022-12-10T14:26:33;99072.60;;;5.22;100.00
50065;BME280;64524;47.848;-122.338;2022-12-10T14:31:39;99075.66;;;5.20;100.00
50065;BME280;64524;47.848;-122.338;2022-12-10T14:34:17;99071.04;;;5.21;100.00
50065;BME280;64524;47.848;-122.338;2022-12-10T14:36:47;99068.46;;;5.21;100.00
50065;BME280;64524;47.848;-122.338;2022-12-10T14:39:24;99071.02;;;5.20;100.00
50065;BME280;64524;47.848;-122.338;2022-12-10T14:41:57;99079.77;;;5.19;100.00
50065;BME280;64524;47.848;-122.338;2022-12-10T14:44:27;99082.52;;;5.19;100.00
50065;BME280;64524;47.848;-122.338;2022-12-10T14:47:26;99082.87;;;5.19;100.00